Seabeck, Washington
Current Conditions -  °F | °C
As of 5:15 PM on Thursday 27 Nov 2014 (Local Time) from KPWT Reporting Station
Overcast Overcast  
Wind Chill: 52°   Ceiling: 400
Heat Index: 52°   Visibility: 7mi
Dew Point: 52°   Wind: 16mph
Humidity: 100%   Direction: 180°S
Pressure: 29.78"   Gusts: 29mph
Location:  47.64°N, 122.83°W
Report Text: KPWT 280115Z AUTO 18014G25KT 7SM OVC004 11/11 A2978 RMK AO1 P0006
Loading
Personal Weather Stations






























Interactive Weather Map New forecast layout! Learn more

10-Day Weather Forecast

Advertisements
Track Severe Weather on mobile